Airfield :
LOGIN :

Register | Disclaimer

   EN    FR    IT 

 










Legend :    VFR   Marginal VFR   IFR   Intensive IFR   Very Intensive IFR
Visi :
Ceiling :
>= 8 km
>= 3000ft
5 to 8 km
1000 to 3000 ft
1500m to 5 km
500 to 1000 ft
800 to 1500m
200 to 500 ft
< 800m
< 200 ft
Symbols :   Thunderstorms  Fog  Heavy snow  Heavy precipitations  Wind > 20 kt
SIGMETs :     Misc.  Thunderstorms  Icing  Turbulence  Mountain Waves  Volcanic Ashes






- Airport Elevation : 160 ft
- IATA code : LRT


LFRH - Lorient Lann Bihoue

CURRENT METAR :
  • 200130Z AUTO 11011KT 9999 BKN013 BKN028 BKN041 08/06 Q1011

EXPIRED METARs :
  • 200100Z AUTO 12013KT 9999 FEW013 BKN027 BKN039 08/06 Q1011 NOSIG
  • 200030Z AUTO 12013KT 9999 FEW014 BKN027 OVC240 09/06 Q1011 NOSIG
  • 200000Z AUTO 14016KT 9999 BKN026 BKN040 OVC240 10/06 Q1012 NOSIG
  • 192330Z AUTO 15014KT 9999 FEW027 SCT041 OVC240 10/06 Q1012 NOSIG
  • 192300Z AUTO 15016KT 9999 FEW026 OVC230 10/06 Q1012 NOSIG

TAF TAF LFRH
Valid from the 20 at 00:00 until the 21 at 00:00 UTC


192300Z 2000/2024 16013KT 9999 BKN020 BKN050
TEMPO 2004/2008 BKN005 BKN009
BECMG 2010/2012 12008KT BKN013 BKN020
BECMG 2020/2022 12012G22KT 4900 -RA BKN004 BKN008



MET'MAP, your aeronautical weather chart ! - Copyright ORBIFLY December 2007 - Disclaimer

ORBIFLY MET'MAP TEAM :

Programming & Development : Alexandra Zaïnal
Concept & Development : Baudouin d'Aumeries
Co-Development & Prog : Marc-Olivier Méhu
Technical & hardware support : Manuel Goepfert

Contact : metmap@orbifly.com




SOURCES & CREDITS :

   NOAA